Time;durP1;ratioP1;P1;durP2;ratioP2;P2;SDS_P1;SDS_P2;PMS_P1;PMS_P2;Temp;Humidity;BMP_temperature;BMP_pressure;BME280_temperature;BME280_humidity;BME280_pressure;Samples;Min_cycle;Max_cycle;Signal;HPM_P1;HPM_P2
2021/12/01 15:21:14;;;;;;;4.03;0.90;;;;;;;;;;5106419;27;20377;-79
2021/12/01 15:23:53;;;;;;;2.80;0.93;;;;;;;;;;5090313;28;20036;-81
2021/12/01 15:26:22;;;;;;;4.45;1.20;;;;;;;;;;5071875;28;20134;-80
2021/12/01 15:28:49;;;;;;;3.28;1.00;;;;;;;;;;5090372;28;20052;-80
2021/12/01 15:31:16;;;;;;;5.47;1.23;;;;;;;;;;5090099;28;20483;-80
2021/12/01 15:33:43;;;;;;;7.63;1.15;;;;;;;;;;5071963;28;20064;-80
2021/12/01 15:36:08;;;;;;;2.80;1.30;;;;;;;;;;5071980;28;20458;-80
2021/12/01 15:38:35;;;;;;;3.35;1.30;;;;;;;;;;5071625;28;20028;-80
2021/12/01 15:41:00;;;;;;;3.75;1.05;;;;;;;;;;5071462;28;20020;-81
2021/12/01 15:43:26;;;;;;;5.75;1.52;;;;;;;;;;5072051;28;20043;-80
2021/12/01 15:45:51;;;;;;;4.88;1.42;;;;;;;;;;5071796;28;20336;-80
2021/12/01 15:48:17;;;;;;;4.88;1.50;;;;;;;;;;5071815;28;20040;-80
2021/12/01 15:50:43;;;;;;;6.63;1.52;;;;;;;;;;5089392;28;20071;-83
2021/12/01 15:53:09;;;;;;;5.30;1.20;;;;;;;;;;5073057;28;20036;-84
2021/12/01 15:55:34;;;;;;;8.07;1.98;;;;;;;;;;5091565;28;20082;-82
2021/12/01 15:58:01;;;;;;;5.15;1.05;;;;;;;;;;5090633;28;20033;-82
2021/12/01 16:00:29;;;;;;;8.55;2.08;;;;;;;;;;5072588;28;20029;-83
2021/12/01 16:02:56;;;;;;;6.13;1.50;;;;;;;;;;5071881;28;20123;-83
2021/12/01 16:05:22;;;;;;;6.18;1.60;;;;;;;;;;5088703;28;20024;-83
2021/12/01 16:07:47;;;;;;;5.47;1.77;;;;;;;;;;5088366;28;20499;-81
2021/12/01 16:10:13;;;;;;;4.88;1.67;;;;;;;;;;5089156;28;20025;-80
2021/12/01 16:12:40;;;;;;;5.30;2.17;;;;;;;;;;5088961;28;20054;-81
2021/12/01 16:15:07;;;;;;;8.95;2.50;;;;;;;;;;5070692;28;20031;-82
2021/12/01 16:17:37;;;;;;;6.70;2.63;;;;;;;;;;5088079;28;20102;-81
2021/12/01 16:20:05;;;;;;;6.15;2.03;;;;;;;;;;5087943;28;20104;-81
2021/12/01 16:22:30;;;;;;;5.88;2.15;;;;;;;;;;5086990;28;20028;-82
2021/12/01 16:24:58;;;;;;;5.72;2.00;;;;;;;;;;5087382;28;20166;-82
2021/12/01 16:27:24;;;;;;;6.82;2.05;;;;;;;;;;5079646;28;20039;-80
2021/12/01 16:29:49;;;;;;;3.45;1.98;;;;;;;;;;5076865;28;20096;-81
2021/12/01 16:32:18;;;;;;;7.10;1.80;;;;;;;;;;5063306;28;20033;-80
2021/12/01 16:34:43;;;;;;;5.82;1.60;;;;;;;;;;5049527;28;20046;-80
2021/12/01 16:37:12;;;;;;;4.35;2.35;;;;;;;;;;5068176;28;20106;-80
2021/12/01 16:39:38;;;;;;;3.83;1.67;;;;;;;;;;5059561;28;20111;-82
2021/12/01 16:42:04;;;;;;;5.95;1.80;;;;;;;;;;5058904;28;20032;-82
2021/12/01 16:44:29;;;;;;;6.35;2.80;;;;;;;;;;5052336;28;20035;-81
2021/12/01 16:46:55;;;;;;;5.53;1.55;;;;;;;;;;5062998;28;20028;-82
2021/12/01 16:49:20;;;;;;;8.88;2.17;;;;;;;;;;5058999;28;20027;-80
2021/12/01 16:51:46;;;;;;;4.68;1.67;;;;;;;;;;5064466;28;20021;-80
2021/12/01 16:54:11;;;;;;;5.35;2.08;;;;;;;;;;5060214;28;20348;-81
2021/12/01 16:56:37;;;;;;;6.88;1.90;;;;;;;;;;5074142;28;20079;-82
2021/12/01 16:59:02;;;;;;;6.03;2.20;;;;;;;;;;5074460;28;20375;-82
2021/12/01 17:01:31;;;;;;;2.75;1.42;;;;;;;;;;5056030;28;20036;-81
2021/12/01 17:04:00;;;;;;;5.95;1.92;;;;;;;;;;5074031;28;20097;-81
2021/12/01 17:06:32;;;;;;;8.88;2.50;;;;;;;;;;5072448;28;20109;-80
2021/12/01 17:08:58;;;;;;;5.05;1.98;;;;;;;;;;5074169;28;20486;-81
2021/12/01 17:11:26;;;;;;;5.05;2.15;;;;;;;;;;5072793;28;20130;-80
2021/12/01 17:13:51;;;;;;;5.63;2.30;;;;;;;;;;5072529;28;20401;-81
2021/12/01 17:16:17;;;;;;;5.82;2.47;;;;;;;;;;5072293;28;20028;-80
2021/12/01 17:18:46;;;;;;;6.43;1.90;;;;;;;;;;5073640;28;20028;-81
2021/12/01 17:21:13;;;;;;;8.10;2.13;;;;;;;;;;5072880;28;20032;-80
2021/12/01 17:23:40;;;;;;;7.00;2.03;;;;;;;;;;5056647;28;20554;-82
2021/12/01 17:26:06;;;;;;;7.40;2.38;;;;;;;;;;5074887;28;20028;-82
2021/12/01 17:28:33;;;;;;;8.38;2.20;;;;;;;;;;5075517;28;20032;-81
2021/12/01 17:31:04;;;;;;;10.50;2.38;;;;;;;;;;5068004;28;20525;-83
2021/12/01 17:33:29;;;;;;;4.95;2.10;;;;;;;;;;5061896;28;20108;-83
2021/12/01 17:35:59;;;;;;;4.72;2.15;;;;;;;;;;5065472;28;20032;-82
2021/12/01 17:38:25;;;;;;;9.48;2.63;;;;;;;;;;5059946;28;20531;-81
2021/12/01 17:40:51;;;;;;;7.50;2.80;;;;;;;;;;5057246;28;20025;-82
2021/12/01 17:43:17;;;;;;;10.20;2.30;;;;;;;;;;5061141;28;20112;-82
2021/12/01 17:45:44;;;;;;;5.88;2.10;;;;;;;;;;5066770;28;20029;-82
2021/12/01 17:48:09;;;;;;;5.72;2.10;;;;;;;;;;5065842;28;20033;-81
2021/12/01 17:50:35;;;;;;;6.80;2.13;;;;;;;;;;5065937;28;20351;-82
2021/12/01 17:53:00;;;;;;;6.30;2.35;;;;;;;;;;5059262;28;20040;-82
2021/12/01 17:55:27;;;;;;;5.95;2.15;;;;;;;;;;5061568;28;20056;-82
2021/12/01 17:57:52;;;;;;;5.32;2.40;;;;;;;;;;5063391;28;20020;-82
2021/12/01 18:00:25;;;;;;;5.68;2.13;;;;;;;;;;5057285;28;20452;-83
2021/12/01 18:02:51;;;;;;;6.97;2.45;;;;;;;;;;5061294;28;20494;-82
2021/12/01 18:05:18;;;;;;;7.53;2.40;;;;;;;;;;5058847;28;20040;-84
2021/12/01 18:07:44;;;;;;;4.03;2.20;;;;;;;;;;5069503;28;20429;-83
2021/12/01 18:10:10;;;;;;;7.75;2.45;;;;;;;;;;5049952;28;20033;-83
2021/12/01 18:12:35;;;;;;;5.68;2.22;;;;;;;;;;5057931;28;20025;-81
2021/12/01 18:15:01;;;;;;;4.15;2.17;;;;;;;;;;5058724;28;20392;-82
2021/12/01 18:17:26;;;;;;;6.38;2.33;;;;;;;;;;5055951;28;20036;-83
2021/12/01 18:19:52;;;;;;;4.38;1.95;;;;;;;;;;5038507;28;20095;-81
2021/12/01 18:22:18;;;;;;;5.22;1.73;;;;;;;;;;5037395;28;20443;-81
2021/12/01 18:24:45;;;;;;;4.13;1.75;;;;;;;;;;5053982;28;20033;-82
2021/12/01 18:27:12;;;;;;;2.97;1.77;;;;;;;;;;5053871;28;20027;-82
2021/12/01 18:29:37;;;;;;;4.78;1.77;;;;;;;;;;5053703;28;20538;-84
2021/12/01 18:32:03;;;;;;;4.18;1.95;;;;;;;;;;5054394;28;20033;-84
2021/12/01 18:34:29;;;;;;;3.85;1.70;;;;;;;;;;5020918;28;20041;-82
2021/12/01 18:36:55;;;;;;;5.35;1.83;;;;;;;;;;5056492;28;20119;-83
2021/12/01 18:39:23;;;;;;;4.25;2.03;;;;;;;;;;5055183;28;20100;-83
2021/12/01 18:41:49;;;;;;;5.95;1.98;;;;;;;;;;5036849;28;20506;-81
2021/12/01 18:44:14;;;;;;;6.05;2.22;;;;;;;;;;5054278;28;20025;-82
2021/12/01 18:46:46;;;;;;;2.88;1.63;;;;;;;;;;5053888;28;20494;-82
2021/12/01 18:49:12;;;;;;;3.72;1.80;;;;;;;;;;5053259;28;20052;-82
2021/12/01 18:51:38;;;;;;;5.30;1.65;;;;;;;;;;5055682;28;20033;-83
2021/12/01 18:54:04;;;;;;;8.68;2.58;;;;;;;;;;5053827;28;20031;-82
2021/12/01 18:56:30;;;;;;;5.28;2.45;;;;;;;;;;5037943;28;20021;-81
2021/12/01 18:58:55;;;;;;;9.80;2.05;;;;;;;;;;5035916;28;20547;-82
2021/12/01 19:01:23;;;;;;;6.65;2.55;;;;;;;;;;5052188;28;20025;-81
2021/12/01 19:03:49;;;;;;;3.80;2.20;;;;;;;;;;5053842;28;20029;-82
2021/12/01 19:06:15;;;;;;;4.72;2.22;;;;;;;;;;5037086;28;20033;-81
2021/12/01 19:08:41;;;;;;;5.43;2.75;;;;;;;;;;5054335;28;20075;-83
2021/12/01 19:11:08;;;;;;;6.70;2.22;;;;;;;;;;5052155;28;20132;-80
2021/12/01 19:13:34;;;;;;;4.55;2.35;;;;;;;;;;5052019;28;20033;-83
2021/12/01 19:16:00;;;;;;;6.13;2.15;;;;;;;;;;5053152;28;20025;-80
2021/12/01 19:18:28;;;;;;;5.10;2.30;;;;;;;;;;5018860;28;20048;-80
2021/12/01 19:20:54;;;;;;;8.13;2.65;;;;;;;;;;5036100;28;20381;-81
2021/12/01 19:23:19;;;;;;;9.10;2.75;;;;;;;;;;5053776;28;20039;-80
2021/12/01 19:25:44;;;;;;;10.10;2.47;;;;;;;;;;5053309;28;20120;-81
2021/12/01 19:28:10;;;;;;;5.47;2.20;;;;;;;;;;5054514;28;20035;-79
2021/12/01 19:30:35;;;;;;;6.68;2.35;;;;;;;;;;5055213;28;20029;-79
2021/12/01 19:33:01;;;;;;;9.40;2.65;;;;;;;;;;5054922;28;20029;-81
2021/12/01 19:35:27;;;;;;;7.40;2.20;;;;;;;;;;5055647;28;20107;-78
2021/12/01 19:37:52;;;;;;;5.78;2.33;;;;;;;;;;5055237;28;20113;-81
2021/12/01 19:40:19;;;;;;;4.32;2.00;;;;;;;;;;5053429;28;20029;-79
2021/12/01 19:42:45;;;;;;;3.55;2.15;;;;;;;;;;5039403;28;20029;-80
2021/12/01 19:45:13;;;;;;;11.18;2.00;;;;;;;;;;5056257;28;20031;-81
2021/12/01 19:47:41;;;;;;;3.95;2.05;;;;;;;;;;5055654;28;20035;-81
2021/12/01 19:50:07;;;;;;;4.07;2.17;;;;;;;;;;5055207;28;20060;-80
2021/12/01 19:52:33;;;;;;;3.75;2.00;;;;;;;;;;5056827;28;20037;-80
2021/12/01 19:55:00;;;;;;;4.45;2.00;;;;;;;;;;5057931;28;20090;-80
2021/12/01 19:57:28;;;;;;;7.90;2.50;;;;;;;;;;5038953;28;20119;-80
2021/12/01 19:59:53;;;;;;;2.90;1.90;;;;;;;;;;5055931;28;20374;-79
2021/12/01 20:02:19;;;;;;;3.30;1.90;;;;;;;;;;5055341;28;20104;-79
2021/12/01 20:04:44;;;;;;;3.75;2.08;;;;;;;;;;5021281;28;20043;-81
2021/12/01 20:07:10;;;;;;;6.43;2.25;;;;;;;;;;5060184;28;20055;-81
2021/12/01 20:09:36;;;;;;;4.13;2.05;;;;;;;;;;5041108;28;20025;-80
2021/12/01 20:12:06;;;;;;;3.53;1.90;;;;;;;;;;5058194;28;20037;-80
2021/12/01 20:14:34;;;;;;;3.28;1.75;;;;;;;;;;5041181;28;20024;-81
2021/12/01 20:17:01;;;;;;;8.73;2.00;;;;;;;;;;5041737;28;20111;-79
2021/12/01 20:19:26;;;;;;;6.43;2.00;;;;;;;;;;5055641;28;20121;-79
2021/12/01 20:21:52;;;;;;;6.20;2.22;;;;;;;;;;5056191;28;20057;-81
2021/12/01 20:24:18;;;;;;;3.88;1.80;;;;;;;;;;5056946;28;20036;-81
2021/12/01 20:26:45;;;;;;;4.68;2.10;;;;;;;;;;5056032;28;20029;-80
2021/12/01 20:29:11;;;;;;;4.45;2.22;;;;;;;;;;5055447;28;20017;-83
2021/12/01 20:31:39;;;;;;;4.75;1.80;;;;;;;;;;5039489;28;20463;-80
2021/12/01 20:34:09;;;;;;;9.48;2.70;;;;;;;;;;5039286;28;20029;-80
2021/12/01 20:36:35;;;;;;;5.32;2.03;;;;;;;;;;5039881;28;20025;-80
2021/12/01 20:39:03;;;;;;;4.90;1.88;;;;;;;;;;5057032;28;20030;-80
2021/12/01 20:41:31;;;;;;;3.35;1.77;;;;;;;;;;5056826;28;20041;-79
2021/12/01 20:43:56;;;;;;;4.63;2.35;;;;;;;;;;5039846;28;20486;-80
2021/12/01 20:59:25;;;;;;;3.85;2.05;;;;;;;;;;5057681;28;20064;-82
2021/12/01 21:01:52;;;;;;;4.63;1.90;;;;;;;;;;5056517;28;20025;-81
2021/12/01 21:04:23;;;;;;;7.82;1.90;;;;;;;;;;5039158;28;20044;-79
2021/12/01 21:06:52;;;;;;;2.97;1.80;;;;;;;;;;5056035;28;20033;-79
2021/12/01 21:12:17;;;;;;;5.47;2.10;;;;;;;;;;5033559;28;20071;-79
2021/12/01 21:14:42;;;;;;;4.93;1.98;;;;;;;;;;5056752;28;20025;-82
2021/12/01 21:17:07;;;;;;;9.70;2.28;;;;;;;;;;5053209;28;20114;-82
2021/12/01 21:19:33;;;;;;;4.43;2.55;;;;;;;;;;5054700;28;20077;-82
2021/12/01 21:22:06;;;;;;;4.88;2.00;;;;;;;;;;5054355;28;20044;-81
2021/12/01 21:24:34;;;;;;;4.80;2.13;;;;;;;;;;5053174;28;20025;-81
2021/12/01 21:27:04;;;;;;;4.18;1.88;;;;;;;;;;5053922;28;20494;-82
2021/12/01 21:29:31;;;;;;;6.57;2.10;;;;;;;;;;5054275;28;20151;-82
2021/12/01 21:31:57;;;;;;;4.45;1.85;;;;;;;;;;5053740;28;20032;-81
2021/12/01 21:34:23;;;;;;;7.45;2.60;;;;;;;;;;5054894;28;20492;-81
2021/12/01 21:36:48;;;;;;;9.95;1.80;;;;;;;;;;5054941;28;20071;-81
2021/12/01 21:39:14;;;;;;;9.77;1.90;;;;;;;;;;5037612;28;20029;-81
2021/12/01 21:41:39;;;;;;;5.47;2.00;;;;;;;;;;5036962;28;20220;-82
2021/12/01 21:44:05;;;;;;;5.35;2.00;;;;;;;;;;5036701;28;20029;-81
2021/12/01 21:46:30;;;;;;;3.78;1.60;;;;;;;;;;5052721;28;20027;-82
2021/12/01 21:48:56;;;;;;;5.72;2.60;;;;;;;;;;5053883;28;20106;-83
2021/12/01 21:51:23;;;;;;;6.68;2.47;;;;;;;;;;5038190;28;20041;-82
2021/12/01 21:53:51;;;;;;;4.32;2.10;;;;;;;;;;5036844;28;20029;-81
2021/12/01 21:56:18;;;;;;;4.63;1.80;;;;;;;;;;5053162;28;20545;-82
2021/12/01 21:58:46;;;;;;;4.03;2.13;;;;;;;;;;5055101;28;20032;-83
2021/12/01 22:01:12;;;;;;;4.38;1.95;;;;;;;;;;5052422;28;20044;-81
2021/12/01 22:03:41;;;;;;;4.90;1.80;;;;;;;;;;5052060;28;20452;-80
2021/12/01 22:06:06;;;;;;;8.63;3.47;;;;;;;;;;5035331;28;20187;-80
2021/12/01 22:08:32;;;;;;;4.10;1.77;;;;;;;;;;5052185;28;20148;-80
2021/12/01 22:10:58;;;;;;;8.70;2.17;;;;;;;;;;5035600;28;20029;-80
2021/12/01 22:13:24;;;;;;;6.90;2.10;;;;;;;;;;5056837;28;20059;-80
2021/12/01 22:15:50;;;;;;;7.57;1.92;;;;;;;;;;5035976;28;20036;-80
2021/12/01 22:18:17;;;;;;;3.47;1.90;;;;;;;;;;5052449;28;20396;-79
2021/12/01 22:20:47;;;;;;;3.70;1.92;;;;;;;;;;5051531;28;20045;-79
2021/12/01 22:23:13;;;;;;;5.25;1.80;;;;;;;;;;5053351;28;20021;-78
2021/12/01 22:25:44;;;;;;;8.27;2.30;;;;;;;;;;5051606;28;20078;-79
2021/12/01 22:28:10;;;;;;;7.22;1.90;;;;;;;;;;5052880;28;20057;-78
2021/12/01 22:30:38;;;;;;;5.07;1.92;;;;;;;;;;5052800;28;20063;-78
2021/12/01 22:33:04;;;;;;;3.72;1.73;;;;;;;;;;5052641;28;20025;-78
2021/12/01 22:35:32;;;;;;;7.90;2.30;;;;;;;;;;5051803;28;20413;-79
2021/12/01 22:37:58;;;;;;;7.40;2.28;;;;;;;;;;5052930;28;20029;-79
2021/12/01 22:40:25;;;;;;;7.88;2.20;;;;;;;;;;5035185;28;20093;-79
